Time;durP1;ratioP1;P1;durP2;ratioP2;P2;SDS_P1;SDS_P2;PMS_P1;PMS_P2;Temp;Humidity;BMP_temperature;BMP_pressure;BME280_temperature;BME280_humidity;BME280_pressure;Samples;Min_cycle;Max_cycle;Signal;HPM_P1;HPM_P2
2021/12/24 00:00:59;;;;;;;26.02;18.20;;;1.70;99.90;;;;;;5023725;28;20242;-44
2021/12/24 00:03:26;;;;;;;29.92;17.23;;;1.70;99.90;;;;;;5040686;28;20510;-44
2021/12/24 00:05:53;;;;;;;25.95;18.42;;;1.60;99.90;;;;;;5022714;28;20228;-49
2021/12/24 00:08:21;;;;;;;31.10;18.90;;;1.70;99.90;;;;;;5040758;28;20231;-44
2021/12/24 00:10:57;;;;;;;30.98;18.40;;;1.90;99.90;;;;;;5041051;28;20208;-45
2021/12/24 00:13:26;;;;;;;31.05;19.80;;;1.90;99.90;;;;;;5023128;28;20459;-45
2021/12/24 00:37:09;;;;;;;27.20;16.27;;;2.10;99.90;;;;;;5040062;28;20200;-44
2021/12/24 00:39:44;;;;;;;25.23;16.33;;;2.30;99.90;;;;;;5039956;28;20208;-42
2021/12/24 00:42:12;;;;;;;28.13;16.02;;;2.00;99.90;;;;;;5022965;28;20200;-45
2021/12/24 00:44:40;;;;;;;21.48;15.65;;;2.10;99.90;;;;;;5039807;28;20216;-44
2021/12/24 00:47:07;;;;;;;25.27;16.52;;;2.10;99.90;;;;;;5039978;28;20200;-45
2021/12/24 00:49:34;;;;;;;22.60;15.05;;;2.10;99.90;;;;;;5039910;28;20250;-45
2021/12/24 00:52:20;;;;;;;25.23;15.35;;;2.20;99.90;;;;;;5040213;28;20239;-47
2021/12/24 00:55:09;;;;;;;26.77;14.75;;;2.30;99.90;;;;;;5039753;28;20687;-45
2021/12/24 00:57:38;;;;;;;23.08;14.57;;;2.30;99.90;;;;;;5039861;28;20271;-42
2021/12/24 01:00:13;;;;;;;23.83;15.20;;;2.40;99.90;;;;;;5040170;28;20277;-46
2021/12/24 01:02:41;;;;;;;22.60;14.88;;;2.60;99.90;;;;;;5040218;28;20510;-43
2021/12/24 01:05:10;;;;;;;22.35;14.50;;;2.50;99.90;;;;;;5022161;28;20235;-43
2021/12/24 01:07:38;;;;;;;23.67;15.07;;;2.50;99.90;;;;;;5040100;28;20254;-47
2021/12/24 01:10:08;;;;;;;21.55;14.27;;;2.50;99.90;;;;;;5040106;28;20441;-48
2021/12/24 01:12:35;;;;;;;21.30;13.82;;;2.70;99.90;;;;;;5039816;28;20228;-47
2021/12/24 01:15:05;;;;;;;23.02;14.40;;;2.90;99.90;;;;;;5040105;28;20221;-45
2021/12/24 01:17:45;;;;;;;25.67;14.85;;;2.90;99.90;;;;;;5024076;28;20250;-49
2021/12/24 01:20:27;;;;;;;19.05;13.40;;;3.00;99.90;;;;;;5026638;28;20262;-46
2021/12/24 01:25:32;;;;;;;19.67;13.80;;;2.80;99.90;;;;;;5043957;28;20407;-43
2021/12/24 01:38:56;;;;;;;17.45;12.25;;;2.70;99.90;;;;;;5043430;28;20234;-44
2021/12/24 01:44:09;;;;;;;21.05;13.60;;;3.00;99.90;;;;;;5043363;28;20223;-46
2021/12/24 01:46:38;;;;;;;20.08;12.30;;;3.00;99.90;;;;;;5043434;28;20271;-49
2021/12/24 01:49:05;;;;;;;18.00;11.43;;;3.00;99.90;;;;;;5043172;28;20255;-47
2021/12/24 01:51:33;;;;;;;13.32;10.60;;;3.00;99.90;;;;;;5043503;28;20209;-50
2021/12/24 01:54:00;;;;;;;16.02;11.15;;;3.20;99.90;;;;;;5043149;28;20229;-47
2021/12/24 01:56:27;;;;;;;15.75;13.20;;;3.20;99.90;;;;;;5043284;28;20208;-47
2021/12/24 01:58:54;;;;;;;17.52;11.55;;;3.00;99.90;;;;;;5043095;28;20205;-49
2021/12/24 02:01:27;;;;;;;17.48;12.45;;;2.90;99.90;;;;;;5043303;28;20251;-46
2021/12/24 02:03:54;;;;;;;16.52;10.75;;;3.00;99.90;;;;;;5042762;28;20220;-51
2021/12/24 02:06:22;;;;;;;16.63;10.43;;;3.20;99.90;;;;;;5042856;28;20247;-49
2021/12/24 02:08:49;;;;;;;21.13;12.27;;;3.20;99.90;;;;;;5025230;28;20201;-47
2021/12/24 02:11:18;;;;;;;14.32;10.15;;;3.30;99.90;;;;;;5042768;28;20415;-50
2021/12/24 02:13:45;;;;;;;17.35;11.65;;;3.40;99.90;;;;;;5042479;28;20278;-49
2021/12/24 02:29:45;;;;;;;18.27;12.60;;;3.10;99.90;;;;;;5042332;28;20204;-49
2021/12/24 02:32:12;;;;;;;17.58;10.23;;;3.20;99.90;;;;;;5042437;28;20239;-51
2021/12/24 02:34:39;;;;;;;15.20;10.98;;;3.20;99.90;;;;;;5042011;28;20275;-50
2021/12/24 02:37:08;;;;;;;16.65;10.40;;;3.00;99.90;;;;;;5044155;28;20545;-50
2021/12/24 02:39:35;;;;;;;16.90;10.98;;;3.00;99.90;;;;;;5042956;28;20259;-51
2021/12/24 02:42:21;;;;;;;19.65;13.50;;;3.00;99.90;;;;;;5042351;28;20235;-49
2021/12/24 02:44:50;;;;;;;21.65;13.90;;;3.10;99.90;;;;;;5042429;28;20260;-51
2021/12/24 02:55:24;;;;;;;20.50;13.82;;;2.80;99.90;;;;;;4942507;29;20648;-55
2021/12/24 02:57:51;;;;;;;13.70;10.35;;;2.90;99.90;;;;;;4942427;29;20203;-57
2021/12/24 03:00:26;;;;;;;15.02;11.23;;;3.10;99.90;;;;;;4990921;28;20254;-53
2021/12/24 03:02:55;;;;;;;17.27;11.20;;;3.00;99.90;;;;;;5042072;28;20200;-51
2021/12/24 03:05:24;;;;;;;18.27;11.05;;;2.90;99.90;;;;;;5042042;28;20482;-51
2021/12/24 03:07:51;;;;;;;18.25;13.18;;;3.10;99.90;;;;;;5023903;28;20246;-53
2021/12/24 03:10:20;;;;;;;16.65;11.07;;;3.20;99.90;;;;;;5042207;28;20294;-51
2021/12/24 03:12:51;;;;;;;18.75;11.82;;;3.10;99.90;;;;;;5041329;28;20258;-53
2021/12/24 03:15:20;;;;;;;12.80;10.98;;;3.00;99.90;;;;;;5041781;28;20215;-51
2021/12/24 03:17:50;;;;;;;12.60;9.73;;;3.10;99.90;;;;;;5041181;28;20507;-52
2021/12/24 03:20:17;;;;;;;14.40;11.25;;;3.10;99.90;;;;;;5041732;28;20197;-56
2021/12/24 03:25:12;;;;;;;18.67;10.20;;;3.20;99.90;;;;;;5041603;28;20216;-52
2021/12/24 03:27:39;;;;;;;14.60;10.20;;;3.20;99.90;;;;;;5041085;28;20263;-54
2021/12/24 03:30:08;;;;;;;14.40;9.95;;;3.30;99.90;;;;;;5041520;28;20573;-52
2021/12/24 03:32:35;;;;;;;15.65;10.50;;;3.20;99.90;;;;;;5040960;28;20527;-56
2021/12/24 03:35:04;;;;;;;14.02;11.10;;;3.20;99.90;;;;;;5041559;28;20542;-53
2021/12/24 03:37:31;;;;;;;18.33;11.90;;;3.20;99.90;;;;;;5041222;28;20203;-50
2021/12/24 03:39:58;;;;;;;13.20;9.30;;;3.20;99.90;;;;;;5041039;28;20196;-52
2021/12/24 03:42:25;;;;;;;18.13;11.48;;;3.40;99.90;;;;;;5041237;28;20510;-51
2021/12/24 03:45:04;;;;;;;13.85;9.75;;;3.40;99.90;;;;;;5023474;28;20271;-52
2021/12/24 03:47:36;;;;;;;15.27;10.70;;;3.30;99.90;;;;;;5041137;28;20433;-50
2021/12/24 03:50:09;;;;;;;19.08;10.90;;;3.40;99.90;;;;;;5023678;28;20371;-49
2021/12/24 03:53:02;;;;;;;16.13;11.48;;;3.40;99.90;;;;;;5041012;28;20201;-48
2021/12/24 03:55:27;;;;;;;13.48;9.45;;;3.40;99.90;;;;;;5040634;28;20262;-51
2021/12/24 03:57:54;;;;;;;13.25;10.90;;;3.70;99.90;;;;;;5040926;28;20488;-49
2021/12/24 04:00:26;;;;;;;14.27;10.05;;;3.50;99.90;;;;;;5040429;28;20204;-48
2021/12/24 04:02:53;;;;;;;20.02;12.75;;;3.50;99.90;;;;;;5040872;28;20197;-49
2021/12/24 04:05:21;;;;;;;16.27;11.80;;;3.50;99.90;;;;;;5040432;28;20229;-51
2021/12/24 04:07:48;;;;;;;16.17;11.48;;;3.10;99.90;;;;;;5040969;28;20197;-53
2021/12/24 04:10:36;;;;;;;23.42;11.48;;;3.20;99.90;;;;;;5040473;28;20363;-52
2021/12/24 04:13:03;;;;;;;14.45;9.82;;;3.40;99.90;;;;;;5040664;28;20221;-50
2021/12/24 04:15:30;;;;;;;18.92;10.80;;;3.50;99.90;;;;;;5043238;28;20220;-53
2021/12/24 04:17:58;;;;;;;22.73;10.48;;;3.40;99.90;;;;;;5044189;28;20197;-50
2021/12/24 04:25:58;;;;;;;20.38;12.20;;;3.40;99.90;;;;;;5040195;28;20208;-49
2021/12/24 04:28:25;;;;;;;16.38;10.40;;;3.40;99.90;;;;;;5040122;28;20220;-50
2021/12/24 04:30:53;;;;;;;17.73;12.60;;;3.30;99.90;;;;;;5040285;28;20209;-48
2021/12/24 04:33:27;;;;;;;20.50;10.27;;;3.50;99.90;;;;;;5040280;28;20263;-49
2021/12/24 04:38:37;;;;;;;16.10;12.02;;;3.70;99.90;;;;;;5040443;28;20198;-50
2021/12/24 04:52:33;;;;;;;15.30;10.15;;;3.80;99.90;;;;;;5041616;28;20244;-51
2021/12/24 05:03:27;;;;;;;16.05;10.95;;;4.70;99.90;;;;;;5044724;28;20409;-55
2021/12/24 05:06:09;;;;;;;12.98;9.95;;;4.70;99.90;;;;;;5079363;22;20237;-47
2021/12/24 05:08:58;;;;;;;14.65;10.20;;;4.70;99.90;;;;;;5064714;28;20208;-46
2021/12/24 05:11:26;;;;;;;12.77;9.35;;;4.40;99.90;;;;;;5064137;28;20243;-52
2021/12/24 05:13:54;;;;;;;10.23;8.55;;;4.50;99.90;;;;;;5063473;28;20222;-49
2021/12/24 05:16:26;;;;;;;17.45;10.88;;;4.50;99.90;;;;;;5063522;28;20217;-50
2021/12/24 05:21:35;;;;;;;15.75;10.30;;;4.10;99.90;;;;;;5063819;28;20236;-50
2021/12/24 05:24:06;;;;;;;13.30;9.35;;;3.90;99.90;;;;;;5063917;28;20259;-49
2021/12/24 05:26:35;;;;;;;14.52;11.20;;;3.70;99.90;;;;;;5063621;28;20534;-51
2021/12/24 05:29:04;;;;;;;17.67;13.10;;;4.00;99.90;;;;;;5063545;28;20201;-51
2021/12/24 05:31:33;;;;;;;16.65;9.85;;;3.90;99.90;;;;;;5063890;28;20549;-48
2021/12/24 05:34:01;;;;;;;13.63;8.82;;;3.60;99.90;;;;;;5071425;28;20225;-50
2021/12/24 05:36:28;;;;;;;14.20;8.20;;;3.60;99.90;;;;;;5063912;28;20235;-47
2021/12/24 05:38:56;;;;;;;14.55;9.05;;;3.80;99.90;;;;;;5063046;28;20205;-51
2021/12/24 05:41:24;;;;;;;11.68;9.25;;;3.90;99.90;;;;;;5063999;28;20207;-48
2021/12/24 05:43:52;;;;;;;12.45;9.70;;;4.20;99.90;;;;;;5063520;28;20215;-51
2021/12/24 05:46:26;;;;;;;17.10;8.98;;;4.10;99.90;;;;;;5063030;28;20219;-51
2021/12/24 05:48:53;;;;;;;10.93;7.93;;;4.20;99.90;;;;;;5063269;28;20201;-50
2021/12/24 05:51:20;;;;;;;11.23;8.18;;;4.30;99.90;;;;;;5062712;28;20209;-50
2021/12/24 05:53:47;;;;;;;10.35;9.05;;;4.30;99.90;;;;;;5063273;28;20253;-49
2021/12/24 05:56:15;;;;;;;13.32;9.85;;;4.30;99.90;;;;;;5061688;28;20548;-51
2021/12/24 05:58:42;;;;;;;14.75;8.50;;;4.40;99.90;;;;;;5063341;28;20201;-48
2021/12/24 06:01:10;;;;;;;15.32;9.32;;;4.40;99.90;;;;;;5062740;28;20193;-47
2021/12/24 06:03:37;;;;;;;12.55;8.80;;;4.50;99.90;;;;;;5062590;28;20200;-52
2021/12/24 06:06:04;;;;;;;20.52;10.15;;;4.50;99.90;;;;;;5062397;28;20260;-53
2021/12/24 06:08:31;;;;;;;15.70;9.50;;;4.70;99.90;;;;;;5063382;28;20247;-52
2021/12/24 06:11:04;;;;;;;19.42;11.23;;;4.70;99.90;;;;;;5063011;28;20204;-48
2021/12/24 06:13:31;;;;;;;22.63;10.30;;;4.70;99.90;;;;;;5063824;28;20240;-49
2021/12/24 06:15:58;;;;;;;22.67;13.00;;;4.50;99.90;;;;;;5071259;28;20228;-50
2021/12/24 06:18:28;;;;;;;26.80;11.52;;;4.60;99.90;;;;;;5071889;28;20198;-48
2021/12/24 06:21:00;;;;;;;17.15;11.00;;;4.60;99.90;;;;;;5072500;28;20269;-50
2021/12/24 06:23:28;;;;;;;20.98;11.32;;;4.60;99.90;;;;;;5063887;28;20248;-52
2021/12/24 06:25:57;;;;;;;17.65;10.32;;;4.20;99.90;;;;;;5062458;28;20591;-49
2021/12/24 06:28:26;;;;;;;13.65;8.95;;;4.20;99.90;;;;;;5062268;28;20202;-50
2021/12/24 06:30:54;;;;;;;14.70;9.15;;;4.00;99.90;;;;;;5062811;28;20572;-52
2021/12/24 06:33:22;;;;;;;16.58;9.77;;;4.10;99.90;;;;;;5062102;28;20202;-52
2021/12/24 06:35:53;;;;;;;12.13;8.70;;;4.40;99.90;;;;;;5062267;28;20222;-49
2021/12/24 06:38:21;;;;;;;9.27;7.80;;;4.40;99.90;;;;;;5062563;28;20206;-50
2021/12/24 06:40:48;;;;;;;11.95;9.52;;;4.50;99.90;;;;;;5062074;28;20202;-50
2021/12/24 06:43:15;;;;;;;13.38;7.50;;;4.30;99.90;;;;;;5061687;28;20205;-52
2021/12/24 06:45:43;;;;;;;11.65;8.95;;;4.40;99.90;;;;;;5062004;28;20312;-52
2021/12/24 06:48:10;;;;;;;14.18;11.77;;;4.20;99.90;;;;;;5060469;28;20205;-48
2021/12/24 06:50:37;;;;;;;15.43;9.93;;;4.30;99.90;;;;;;5062319;28;20204;-52
2021/12/24 06:53:04;;;;;;;17.77;10.90;;;4.40;99.90;;;;;;5061857;28;20248;-51
2021/12/24 06:55:32;;;;;;;14.93;10.05;;;4.40;99.90;;;;;;5061824;28;20488;-49
2021/12/24 06:57:59;;;;;;;12.38;9.30;;;4.60;99.90;;;;;;5061445;28;20201;-50
2021/12/24 07:00:27;;;;;;;13.80;11.25;;;4.80;99.90;;;;;;5061669;28;20201;-53
2021/12/24 07:02:56;;;;;;;17.98;11.13;;;4.80;99.90;;;;;;5061813;28;20202;-51
2021/12/24 07:05:24;;;;;;;13.52;9.27;;;4.90;99.90;;;;;;5061639;28;20472;-50
2021/12/24 07:07:51;;;;;;;15.00;10.05;;;4.90;99.90;;;;;;5061562;28;20201;-52
2021/12/24 07:10:18;;;;;;;13.07;9.52;;;4.60;99.90;;;;;;5061366;28;20275;-50
2021/12/24 07:12:46;;;;;;;13.27;10.00;;;4.70;99.90;;;;;;5061612;28;20503;-49
2021/12/24 07:15:13;;;;;;;14.95;10.77;;;4.70;99.90;;;;;;5061032;28;20222;-50
2021/12/24 07:17:40;;;;;;;13.80;9.10;;;4.80;99.90;;;;;;5061366;28;20197;-49
2021/12/24 07:20:08;;;;;;;11.77;9.52;;;4.60;99.90;;;;;;5061088;28;20248;-51
2021/12/24 07:22:35;;;;;;;13.02;8.90;;;4.70;99.90;;;;;;5061730;28;20251;-50
2021/12/24 07:25:06;;;;;;;13.13;10.10;;;5.00;99.90;;;;;;5060998;28;20230;-49
2021/12/24 07:27:35;;;;;;;14.45;8.85;;;5.00;99.90;;;;;;5061037;28;20206;-50
2021/12/24 07:30:05;;;;;;;10.40;8.30;;;5.20;99.90;;;;;;5060898;28;20247;-53
2021/12/24 07:32:32;;;;;;;11.02;8.07;;;5.20;99.90;;;;;;5061715;28;20202;-50
2021/12/24 07:34:59;;;;;;;13.90;9.43;;;5.00;99.90;;;;;;5060725;28;20233;-53
2021/12/24 07:37:27;;;;;;;10.95;8.32;;;5.00;99.90;;;;;;5061397;28;20203;-51
2021/12/24 07:39:54;;;;;;;14.20;9.02;;;5.00;99.90;;;;;;5061391;28;20194;-51
2021/12/24 07:42:22;;;;;;;8.20;7.18;;;5.10;99.90;;;;;;5061649;28;20203;-51
2021/12/24 07:44:49;;;;;;;11.52;8.70;;;5.20;99.90;;;;;;5061247;28;20256;-50
2021/12/24 07:47:27;;;;;;;14.70;10.50;;;5.40;99.90;;;;;;5060632;28;20211;-51
2021/12/24 07:50:16;;;;;;;10.27;8.50;;;5.50;99.90;;;;;;5061088;28;20516;-51
2021/12/24 07:52:44;;;;;;;11.55;9.02;;;5.70;99.90;;;;;;5060900;28;20241;-51
2021/12/24 07:55:11;;;;;;;10.35;9.18;;;5.60;99.90;;;;;;5060671;28;20230;-50
2021/12/24 07:57:46;;;;;;;9.95;7.75;;;5.50;99.90;;;;;;5060356;28;20401;-51
2021/12/24 08:00:14;;;;;;;9.80;8.80;;;5.50;99.90;;;;;;5060628;28;20206;-50
2021/12/24 08:02:42;;;;;;;12.63;8.20;;;5.50;99.90;;;;;;5060141;28;20199;-50
2021/12/24 08:05:09;;;;;;;11.95;8.20;;;5.60;99.90;;;;;;5060094;28;20560;-49
2021/12/24 08:07:37;;;;;;;10.05;7.57;;;5.70;99.90;;;;;;5060125;28;20559;-53
2021/12/24 08:10:04;;;;;;;9.32;8.35;;;5.70;99.90;;;;;;5060549;28;20207;-49
2021/12/24 08:12:31;;;;;;;12.68;10.15;;;5.70;99.90;;;;;;5060284;28;20508;-52
2021/12/24 08:14:58;;;;;;;12.27;8.50;;;5.80;99.90;;;;;;5060487;28;20250;-50
2021/12/24 08:17:26;;;;;;;10.93;8.07;;;6.00;99.90;;;;;;5059944;28;20237;-49
2021/12/24 08:19:53;;;;;;;13.35;9.52;;;6.10;99.90;;;;;;5060512;28;20227;-52
2021/12/24 08:22:21;;;;;;;15.10;10.02;;;6.20;99.90;;;;;;5060267;28;20200;-51
2021/12/24 08:24:48;;;;;;;12.25;8.93;;;6.20;99.90;;;;;;5060296;28;20222;-49
2021/12/24 08:27:15;;;;;;;10.15;9.10;;;6.20;99.90;;;;;;5060175;28;20256;-51
2021/12/24 08:29:43;;;;;;;10.90;9.13;;;6.00;99.90;;;;;;5060430;28;20289;-51
2021/12/24 08:32:10;;;;;;;10.10;8.48;;;6.10;99.90;;;;;;5060333;28;20248;-50
2021/12/24 08:34:39;;;;;;;15.32;10.50;;;6.00;99.90;;;;;;5059816;28;20223;-53
2021/12/24 08:37:07;;;;;;;12.88;9.77;;;6.10;99.90;;;;;;5060322;28;20250;-52
2021/12/24 08:39:34;;;;;;;17.50;9.63;;;6.30;99.90;;;;;;5059991;28;20195;-51
2021/12/24 08:42:02;;;;;;;12.65;9.55;;;6.30;99.90;;;;;;5060249;28;20532;-50
2021/12/24 08:44:31;;;;;;;21.95;13.45;;;6.40;99.90;;;;;;5060373;28;20227;-53
2021/12/24 08:47:02;;;;;;;24.08;13.20;;;6.40;99.90;;;;;;5060028;28;20264;-52
2021/12/24 08:49:30;;;;;;;20.17;12.55;;;6.40;99.90;;;;;;5059859;28;20245;-50
2021/12/24 08:51:58;;;;;;;19.77;11.88;;;6.50;99.90;;;;;;5060232;28;20249;-51
2021/12/24 08:54:26;;;;;;;21.92;14.32;;;6.60;99.90;;;;;;5059639;28;20353;-51
2021/12/24 08:56:54;;;;;;;14.20;11.00;;;6.70;99.90;;;;;;5060526;28;20198;-49
2021/12/24 08:59:23;;;;;;;16.98;10.45;;;6.80;99.90;;;;;;5059934;28;20475;-49
2021/12/24 09:01:54;;;;;;;14.10;10.63;;;6.80;99.90;;;;;;5060216;28;20227;-49
2021/12/24 09:04:22;;;;;;;14.90;9.40;;;6.80;99.90;;;;;;5059420;28;20265;-55
2021/12/24 09:06:49;;;;;;;17.05;11.90;;;6.90;99.90;;;;;;5059972;28;20206;-54
2021/12/24 09:09:17;;;;;;;14.40;10.80;;;7.00;99.90;;;;;;5060274;28;20425;-53
2021/12/24 09:11:44;;;;;;;11.52;9.70;;;6.90;99.90;;;;;;5060259;28;20203;-49
2021/12/24 09:14:17;;;;;;;19.73;11.40;;;7.00;99.90;;;;;;5060320;28;20202;-52
2021/12/24 09:16:46;;;;;;;11.63;9.98;;;7.00;99.90;;;;;;5059593;28;20553;-51
2021/12/24 09:19:17;;;;;;;15.80;10.52;;;7.00;99.90;;;;;;5060253;28;20195;-50
2021/12/24 09:21:45;;;;;;;11.23;8.90;;;6.80;99.90;;;;;;5060665;28;20196;-51
2021/12/24 09:24:13;;;;;;;11.93;8.63;;;6.80;99.90;;;;;;5060617;28;20200;-51
2021/12/24 09:26:40;;;;;;;9.93;8.93;;;6.90;99.90;;;;;;5060997;28;20199;-52
2021/12/24 09:29:11;;;;;;;11.20;8.73;;;6.90;99.90;;;;;;5060236;28;20458;-49
2021/12/24 09:31:38;;;;;;;8.60;7.60;;;6.80;99.90;;;;;;5060539;28;20250;-53
2021/12/24 09:34:06;;;;;;;8.32;7.47;;;6.90;99.90;;;;;;5061477;28;20195;-52
2021/12/24 09:36:34;;;;;;;15.60;9.23;;;7.00;99.90;;;;;;5061581;28;20196;-55
2021/12/24 09:39:04;;;;;;;11.05;8.45;;;7.20;99.90;;;;;;5066674;28;20213;-52
2021/12/24 09:41:32;;;;;;;10.38;8.02;;;7.20;99.90;;;;;;5067781;28;20234;-54
2021/12/24 09:44:02;;;;;;;9.90;7.07;;;7.20;99.90;;;;;;5067244;28;20199;-51
2021/12/24 09:46:31;;;;;;;6.30;5.70;;;7.40;99.90;;;;;;5063905;28;20203;-51
2021/12/24 09:48:59;;;;;;;9.23;6.20;;;7.50;99.90;;;;;;5063426;28;20561;-51
2021/12/24 09:51:34;;;;;;;7.10;4.55;;;7.40;99.90;;;;;;5061987;28;20211;-53
2021/12/24 09:54:01;;;;;;;9.43;5.72;;;7.40;99.90;;;;;;5063890;28;20455;-53
2021/12/24 09:56:29;;;;;;;8.73;7.20;;;7.40;99.90;;;;;;5063793;28;20410;-53
2021/12/24 09:58:56;;;;;;;8.48;5.60;;;7.20;99.90;;;;;;5062770;28;20242;-55
2021/12/24 10:01:30;;;;;;;8.50;5.45;;;7.20;99.90;;;;;;5063174;28;20195;-53
2021/12/24 10:04:07;;;;;;;7.15;5.28;;;7.30;99.90;;;;;;5062899;28;20266;-52
2021/12/24 10:06:35;;;;;;;8.63;6.05;;;7.40;99.90;;;;;;5063148;28;20509;-52
2021/12/24 10:09:08;;;;;;;7.13;6.13;;;7.50;99.90;;;;;;5062651;28;20218;-51
2021/12/24 10:11:49;;;;;;;10.05;7.45;;;7.60;99.90;;;;;;5063356;28;20207;-53
2021/12/24 10:14:19;;;;;;;9.20;6.15;;;7.70;99.90;;;;;;5063284;28;20282;-51
2021/12/24 10:16:50;;;;;;;9.77;6.03;;;7.80;99.90;;;;;;5062831;28;20265;-51
2021/12/24 10:19:19;;;;;;;9.13;6.40;;;7.70;99.90;;;;;;5062512;28;20195;-53
2021/12/24 10:21:57;;;;;;;9.90;7.10;;;7.80;99.90;;;;;;5062660;28;20222;-52
2021/12/24 10:24:26;;;;;;;9.32;5.88;;;7.80;99.90;;;;;;5061973;28;20288;-50
2021/12/24 10:26:57;;;;;;;12.02;6.63;;;7.80;99.90;;;;;;5062409;28;20257;-50
2021/12/24 10:29:35;;;;;;;7.53;6.22;;;7.70;99.90;;;;;;5062529;28;20241;-50
2021/12/24 10:32:18;;;;;;;10.93;7.72;;;7.80;99.90;;;;;;5062783;28;20261;-52
2021/12/24 10:34:46;;;;;;;10.50;6.65;;;7.80;99.90;;;;;;5062314;28;20235;-51
2021/12/24 10:37:24;;;;;;;7.45;6.78;;;7.80;99.90;;;;;;5062653;28;20422;-51
2021/12/24 10:40:00;;;;;;;11.68;7.45;;;7.50;99.90;;;;;;5062635;28;20515;-52
2021/12/24 10:42:39;;;;;;;7.60;6.80;;;7.40;99.90;;;;;;5062219;28;20524;-55
2021/12/24 10:45:26;;;;;;;12.23;7.55;;;7.40;99.90;;;;;;5061954;28;20219;-55
2021/12/24 10:47:54;;;;;;;13.02;9.00;;;7.30;99.90;;;;;;5061790;28;20199;-52
2021/12/24 10:53:17;;;;;;;13.95;8.48;;;7.50;99.90;;;;;;5062142;28;20199;-53
2021/12/24 10:55:52;;;;;;;15.43;8.52;;;7.50;99.90;;;;;;5062495;28;20293;-52
2021/12/24 10:58:22;;;;;;;11.00;7.82;;;7.10;99.90;;;;;;5062461;28;20552;-53
2021/12/24 11:00:55;;;;;;;9.50;7.93;;;7.10;99.90;;;;;;5062728;28;20218;-50
2021/12/24 11:03:29;;;;;;;11.75;7.28;;;7.30;99.90;;;;;;5062397;28;20593;-52
2021/12/24 11:06:06;;;;;;;8.40;7.60;;;7.40;99.90;;;;;;5080661;22;20231;-51
2021/12/24 11:08:34;;;;;;;9.82;6.57;;;7.40;99.90;;;;;;5062249;28;20200;-52
2021/12/24 11:11:05;;;;;;;11.43;7.97;;;7.60;99.90;;;;;;5061539;28;20238;-51
2021/12/24 11:13:39;;;;;;;11.27;7.82;;;7.80;99.90;;;;;;5061930;28;20195;-56
2021/12/24 11:16:14;;;;;;;8.65;6.53;;;7.80;99.90;;;;;;5061141;28;20228;-56
2021/12/24 11:18:46;;;;;;;10.52;7.10;;;7.90;99.90;;;;;;5061979;28;20195;-53
2021/12/24 11:21:20;;;;;;;8.57;7.20;;;7.80;99.90;;;;;;5061671;28;20263;-54
2021/12/24 11:23:48;;;;;;;8.70;7.10;;;8.00;99.90;;;;;;5061638;28;20233;-53
2021/12/24 11:26:24;;;;;;;12.18;7.47;;;7.90;99.90;;;;;;5060916;28;20242;-52
2021/12/24 11:28:52;;;;;;;11.35;8.57;;;7.50;99.90;;;;;;5061618;28;20237;-50
2021/12/24 11:31:28;;;;;;;19.15;7.10;;;7.30;99.90;;;;;;5061688;28;20551;-53
2021/12/24 11:33:58;;;;;;;12.63;7.22;;;7.40;99.90;;;;;;5061669;28;20241;-55
2021/12/24 11:36:27;;;;;;;8.18;6.03;;;7.40;99.90;;;;;;5061123;28;20231;-50
2021/12/24 11:39:01;;;;;;;10.60;7.43;;;7.50;99.90;;;;;;5060880;28;20196;-53
2021/12/24 11:41:31;;;;;;;6.28;4.82;;;7.50;99.90;;;;;;5061246;28;20199;-52
2021/12/24 11:44:06;;;;;;;7.93;5.63;;;7.70;99.90;;;;;;5060817;28;20233;-57
2021/12/24 11:46:41;;;;;;;7.38;5.38;;;7.70;99.90;;;;;;5061062;28;20226;-57
2021/12/24 11:49:09;;;;;;;6.38;4.22;;;7.80;99.90;;;;;;5060354;28;20375;-54
2021/12/24 11:51:40;;;;;;;8.18;6.40;;;7.70;99.90;;;;;;5061127;28;20200;-51
2021/12/24 11:54:11;;;;;;;8.45;6.35;;;7.70;99.90;;;;;;5061201;28;20234;-53
2021/12/24 11:56:46;;;;;;;6.28;5.70;;;7.60;99.90;;;;;;5060641;28;20265;-54
2021/12/24 11:59:15;;;;;;;8.00;6.13;;;7.70;99.90;;;;;;5060735;28;20233;-53
2021/12/24 12:01:44;;;;;;;5.10;4.22;;;7.80;99.90;;;;;;5060327;28;20191;-53
2021/12/24 12:04:18;;;;;;;5.10;4.40;;;7.90;99.90;;;;;;5060553;28;20418;-52
2021/12/24 12:06:46;;;;;;;8.38;4.93;;;8.00;99.90;;;;;;5059385;28;20227;-51
2021/12/24 12:09:13;;;;;;;4.88;4.40;;;8.00;99.90;;;;;;5060748;28;20241;-53
2021/12/24 12:11:44;;;;;;;3.33;3.03;;;7.90;99.90;;;;;;5060656;28;20206;-50
2021/12/24 12:14:11;;;;;;;4.70;2.45;;;7.80;99.90;;;;;;5060548;28;20287;-54
2021/12/24 12:16:38;;;;;;;5.00;2.92;;;7.90;99.90;;;;;;5059815;28;20273;-53
2021/12/24 12:19:17;;;;;;;2.58;2.38;;;7.80;99.90;;;;;;5060368;28;20195;-55
2021/12/24 12:22:12;;;;;;;3.15;2.45;;;7.80;99.90;;;;;;5060655;28;20222;-51
2021/12/24 12:24:57;;;;;;;2.50;2.30;;;7.80;99.90;;;;;;5061010;28;20199;-56
2021/12/24 12:27:56;;;;;;;3.60;2.95;;;7.90;99.90;;;;;;5061219;28;20199;-53
2021/12/24 12:30:31;;;;;;;2.90;2.67;;;8.00;99.90;;;;;;5057165;28;20203;-52
2021/12/24 12:33:09;;;;;;;3.67;3.15;;;8.10;99.90;;;;;;5060652;28;20214;-52
2021/12/24 12:35:41;;;;;;;2.00;1.90;;;8.20;99.90;;;;;;5060053;28;20233;-57
2021/12/24 12:38:30;;;;;;;4.43;2.10;;;8.20;99.90;;;;;;5060231;28;20203;-55
2021/12/24 12:41:34;;;;;;;4.00;3.70;;;8.20;99.90;;;;;;5060079;28;20200;-55
2021/12/24 12:44:08;;;;;;;2.33;1.70;;;8.10;99.90;;;;;;5060604;28;20202;-51
2021/12/24 12:46:40;;;;;;;2.55;2.35;;;8.20;99.90;;;;;;5060198;28;20406;-56
2021/12/24 12:49:10;;;;;;;5.15;2.80;;;8.20;99.90;;;;;;5060137;28;20212;-54
2021/12/24 12:52:00;;;;;;;2.85;2.13;;;8.20;99.90;;;;;;5060179;28;20199;-53
2021/12/24 12:54:39;;;;;;;3.42;2.95;;;8.20;99.90;;;;;;5060658;28;20575;-50
2021/12/24 12:57:24;;;;;;;3.00;2.40;;;8.20;99.90;;;;;;5060148;28;20225;-52
2021/12/24 13:00:17;;;;;;;4.25;3.40;;;8.20;99.90;;;;;;5060191;28;20259;-51
2021/12/24 13:02:58;;;;;;;2.35;2.10;;;8.20;99.90;;;;;;5060439;28;20412;-50
2021/12/24 13:05:29;;;;;;;2.67;2.20;;;8.20;99.90;;;;;;5059832;28;20227;-49
2021/12/24 13:08:08;;;;;;;2.28;2.10;;;8.30;99.90;;;;;;5059283;28;20445;-51
2021/12/24 13:10:36;;;;;;;4.00;2.13;;;8.30;99.90;;;;;;5060222;28;20199;-53
2021/12/24 13:13:06;;;;;;;2.85;2.45;;;8.30;99.90;;;;;;5061101;28;20215;-49
2021/12/24 13:15:44;;;;;;;1.92;1.70;;;8.30;99.90;;;;;;5064138;28;20226;-53
2021/12/24 13:18:28;;;;;;;2.45;2.25;;;8.30;99.90;;;;;;5063196;28;20265;-53
2021/12/24 13:23:33;;;;;;;2.72;2.53;;;8.30;99.90;;;;;;5063843;28;20195;-51
2021/12/24 13:26:20;;;;;;;4.13;2.70;;;8.30;99.90;;;;;;5063899;28;20438;-52
2021/12/24 13:28:56;;;;;;;3.10;2.20;;;8.30;99.90;;;;;;5063754;28;20200;-51
2021/12/24 13:31:23;;;;;;;2.70;2.03;;;8.30;99.90;;;;;;5064013;28;20386;-54
2021/12/24 13:33:50;;;;;;;3.47;2.45;;;8.40;99.90;;;;;;5063499;28;20246;-53
2021/12/24 13:36:25;;;;;;;2.47;2.30;;;8.40;99.90;;;;;;5063759;28;20277;-55
2021/12/24 13:38:53;;;;;;;2.97;2.60;;;8.40;99.90;;;;;;5063556;28;20203;-50
2021/12/24 13:41:24;;;;;;;5.78;2.65;;;8.50;99.90;;;;;;5063344;28;20220;-56
2021/12/24 13:43:51;;;;;;;4.50;2.50;;;8.40;99.90;;;;;;5063513;28;20224;-56
2021/12/24 13:46:19;;;;;;;4.60;3.03;;;8.40;99.90;;;;;;5063310;28;20603;-49
2021/12/24 13:49:10;;;;;;;3.60;2.90;;;8.40;99.90;;;;;;5063139;28;20214;-50
2021/12/24 13:54:33;;;;;;;4.00;3.20;;;8.40;99.90;;;;;;5063196;28;20234;-51
2021/12/24 13:57:04;;;;;;;3.08;2.53;;;8.40;99.90;;;;;;5062902;28;20533;-49
2021/12/24 13:59:31;;;;;;;5.70;4.20;;;8.40;99.90;;;;;;5062682;28;20310;-51
2021/12/24 14:02:00;;;;;;;3.00;2.20;;;8.40;99.90;;;;;;5063290;28;20429;-52
2021/12/24 14:04:27;;;;;;;4.55;3.10;;;8.40;99.90;;;;;;5062839;28;20412;-52
2021/12/24 14:06:58;;;;;;;3.75;2.95;;;8.40;99.90;;;;;;5062989;28;20227;-49
2021/12/24 14:09:30;;;;;;;5.13;3.20;;;8.30;99.90;;;;;;5062838;28;20200;-55
2021/12/24 14:11:59;;;;;;;3.03;2.65;;;8.40;99.90;;;;;;5062996;28;20206;-54
2021/12/24 14:14:53;;;;;;;3.72;2.70;;;8.40;99.90;;;;;;5062894;28;20212;-51
2021/12/24 14:22:24;;;;;;;2.63;2.42;;;8.40;99.90;;;;;;5062753;28;20241;-52
2021/12/24 14:24:56;;;;;;;2.33;2.13;;;8.50;99.90;;;;;;5062429;28;20220;-49
2021/12/24 14:27:29;;;;;;;2.72;2.50;;;8.50;99.90;;;;;;5062864;28;20241;-53
2021/12/24 14:30:09;;;;;;;5.18;2.72;;;8.50;99.90;;;;;;5063761;28;20361;-53
2021/12/24 14:32:46;;;;;;;4.18;3.38;;;8.50;99.90;;;;;;5062616;28;20228;-56
2021/12/24 14:35:26;;;;;;;2.85;2.28;;;8.50;99.90;;;;;;5063417;28;20223;-51
2021/12/24 14:38:00;;;;;;;2.85;2.13;;;8.60;99.90;;;;;;5062460;28;20201;-52
2021/12/24 14:40:30;;;;;;;2.58;2.15;;;8.60;99.90;;;;;;5062949;28;20506;-51
2021/12/24 14:42:58;;;;;;;3.28;2.40;;;8.60;99.90;;;;;;5061884;28;20245;-47
2021/12/24 14:45:46;;;;;;;2.88;2.60;;;8.60;99.90;;;;;;5062493;28;20223;-48
2021/12/24 14:48:19;;;;;;;3.08;2.75;;;8.60;99.90;;;;;;5062271;28;20218;-49
2021/12/24 14:50:57;;;;;;;3.58;3.08;;;8.70;99.90;;;;;;5062189;28;20223;-53